Hovedside
METAR-TAF:

METAR-TAF

Lufthavner :

Siirt, Tyrkia

breddegrad: 37-58-41N, lengdegrad: 41-50-21E, høyde over havet: 610 m

Gjeldene værobservasjon

Denne rapporten ble laget for 36 minutter siden, klokken 13:50 UTC
Vind 4 kt fra Nord-nordøst, skiftende mellom Nord og Øst
Temperatur 13°C
Luftfuktighet 94%
Trykk 1016 hPa
Sikt: 9000 m
Få skyer i en høyde av 1700 ft
Brutte skyer i en høyde av 20000 ft

METAR: LTCL 301350Z 03004KT 010V080 9000 FEW017 BKN200 13/12 Q1016

Tid: 17:26 (14:26 UTC)

Varsel

Denne rapporten ble laget for 3 timer og 46 minutter siden, klokken 10:40 UTC
Varsel gyldig fra 30. klokken 12 UTC til 30. klokken 21 UTC
Vind 2 kt fra skiftende retning
Sikt: 4000 m
Brutte skyer i en høyde av 500 ft
dis
Blir
fra 30. klokken 12 UTC til 30. klokken 14 UTC
Sikt 10 km eller mer
ingen skyer under 1500 m og ingen bygeskyer

TAF: LTCL 301040Z 3012/3021 VRB02KT 4000 BR BKN005 BECMG 3012/3014 CAVOK

Værobservasjoner og værvarsel for over 4000 flyplasser (METAR- og TAF-rapporter).

Tilgjengelige stasjoner er representert av de røde og gule prikkene på kartet.

Hold musepekeren over prikken for å se navnet på stasjonen.

Klikk så for å se værobservasjoner og -varsler.

For å forandre kartet kan du klikke på den grønne knappen med svart kryss for å zoome inn, på den grønne knappen med strek for å zoome ut, eller på de grønne pilene for å se tilstøtende kart.


METAR-TAF: